John H Macmillan Jr — WDB9907 — position and weather

sailwx.info

Track history (hours):
 
Tides and Currents Weather Stations Pressure Air Temp Water Temp Dewpoint Dewpoint Depression Visibility Wind Speed Wind Dir Waves Ship Positions

John H Macmillan Jr

Owner: American River Transportation Company, St Louis, MO. More information available from US FCC via Universal Licensing System and Coast Guard Vessel Documentation Center.

Last reported at 2017-Feb-09 15:17 UTC. Time now 2017-Feb-23 04:55 UTC.
Position N 32°43' W 091°03'.
Warning: this ship's position is 13 days out of date.

Length 55 m.

Type: Towing. MMSI: 366984920.

Date/timePositionNaut miles runAvg speedWind from/ knotsBaromVisibWave heightAir tempDewpointWater temp
2017-Feb-09 15:17N 32°43' W 091°03'3 4.1
2017-Feb-09 14:31N 32°41' W 091°06'4 4.0
2017-Feb-09 13:34N 32°38' W 091°09'4 3.9
2017-Feb-09 12:32N 32°34' W 091°07'4 3.9
2017-Feb-09 11:33N 32°31' W 091°07'4 4.2
2017-Feb-09 10:33N 32°27' W 091°04'4 3.9
2017-Feb-09 09:34N 32°25' W 091°00'4 3.8
2017-Feb-09 08:34N 32°21' W 091°00'2 1.9
2017-Feb-09 07:33N 32°21' W 090°58'3 2.6
2017-Feb-09 06:30N 32°20' W 090°55'2 2.6
2017-Feb-09 05:34N 32°18' W 090°55'0 0.2
2017-Feb-09 04:34N 32°18' W 090°55'0 0.0
2017-Feb-09 03:34N 32°18' W 090°55'0 0.3
2017-Feb-09 02:33N 32°18' W 090°55'4 3.8
2017-Feb-09 01:34N 32°15' W 090°58'4 4.1
2017-Feb-09 00:34N 32°11' W 090°60'6 3.2
2017-Feb-08 22:33N 32°08' W 091°06'4 3.9
2017-Feb-08 21:33N 32°04' W 091°04'9 3.6
2017-Feb-08 19:08N 31°58' W 091°11'  
2017-Feb-01 10:06N 31°59' W 091°06'7 7.3
2017-Feb-01 09:07N 32°06' W 091°06'2 3.5
2017-Feb-01 08:33N 32°08' W 091°05'7 6.6
2017-Feb-01 07:33N 32°13' W 090°59'8 8.4
2017-Feb-01 06:33N 32°20' W 090°54'6 5.9
2017-Feb-01 05:33N 32°23' W 090°60'7 7.2
2017-Feb-01 04:33N 32°28' W 091°06'8 7.5
2017-Feb-01 03:33N 32°35' W 091°08'  
Track history (hours):
 
Tides and Currents Weather Stations Pressure Air Temp Water Temp Dewpoint Dewpoint Depression Visibility Wind Speed Wind Dir Waves Ship Positions

John H Macmillan Jr

Owner: American River Transportation Company, St Louis, MO. More information available from US FCC via Universal Licensing System and Coast Guard Vessel Documentation Center.

Last reported at 2017-Feb-09 15:17 UTC. Time now 2017-Feb-23 04:55 UTC.
Position N 32°43' W 091°03'.
Warning: this ship's position is 13 days out of date.

Length 55 m.

Type: Towing. MMSI: 366984920.

Date/timePositionNaut miles runAvg speedWind from/ knotsBaromVisibWave heightAir tempDewpointWater temp
2017-Feb-09 15:17N 32°43' W 091°03'3 4.1
2017-Feb-09 14:31N 32°41' W 091°06'4 4.0
2017-Feb-09 13:34N 32°38' W 091°09'4 3.9
2017-Feb-09 12:32N 32°34' W 091°07'4 3.9
2017-Feb-09 11:33N 32°31' W 091°07'4 4.2
2017-Feb-09 10:33N 32°27' W 091°04'4 3.9
2017-Feb-09 09:34N 32°25' W 091°00'4 3.8
2017-Feb-09 08:34N 32°21' W 091°00'2 1.9
2017-Feb-09 07:33N 32°21' W 090°58'3 2.6
2017-Feb-09 06:30N 32°20' W 090°55'2 2.6
2017-Feb-09 05:34N 32°18' W 090°55'0 0.2
2017-Feb-09 04:34N 32°18' W 090°55'0 0.0
2017-Feb-09 03:34N 32°18' W 090°55'0 0.3
2017-Feb-09 02:33N 32°18' W 090°55'4 3.8
2017-Feb-09 01:34N 32°15' W 090°58'4 4.1
2017-Feb-09 00:34N 32°11' W 090°60'6 3.2
2017-Feb-08 22:33N 32°08' W 091°06'4 3.9
2017-Feb-08 21:33N 32°04' W 091°04'9 3.6
2017-Feb-08 19:08N 31°58' W 091°11'  
2017-Feb-01 10:06N 31°59' W 091°06'7 7.3
2017-Feb-01 09:07N 32°06' W 091°06'2 3.5
2017-Feb-01 08:33N 32°08' W 091°05'7 6.6
2017-Feb-01 07:33N 32°13' W 090°59'8 8.4
2017-Feb-01 06:33N 32°20' W 090°54'6 5.9
2017-Feb-01 05:33N 32°23' W 090°60'7 7.2
2017-Feb-01 04:33N 32°28' W 091°06'8 7.5
2017-Feb-01 03:33N 32°35' W 091°08'  

Dump ship's entire track history